createdAt,value
2022-11-27T00:01:30.887Z,98.13
2022-11-27T00:06:30.830Z,98.65
2022-11-27T00:11:30.758Z,99.17
2022-11-27T00:16:30.790Z,99.38
2022-11-27T00:21:30.627Z,99.38
2022-11-27T00:26:35.943Z,99.59
2022-11-27T00:31:30.584Z,99.44
2022-11-27T00:36:30.439Z,98.92
2022-11-27T00:41:30.370Z,98.40
2022-11-27T00:46:30.432Z,98.24
2022-11-27T00:51:30.236Z,97.82
2022-11-27T00:56:30.180Z,97.24
2022-11-27T01:01:30.241Z,97.56
2022-11-27T01:06:30.055Z,98.70
2022-11-27T01:11:29.984Z,98.91
2022-11-27T01:16:30.009Z,98.85
2022-11-27T01:21:29.854Z,99.06
2022-11-27T01:26:29.787Z,98.54
2022-11-27T01:31:29.825Z,97.91
2022-11-27T01:36:29.659Z,97.54
2022-11-27T01:41:29.584Z,97.33
2022-11-27T01:46:29.625Z,97.33
2022-11-27T01:51:29.457Z,97.75
2022-11-27T01:56:29.401Z,98.01
2022-11-27T02:01:29.371Z,98.32
2022-11-27T02:06:29.271Z,98.32
2022-11-27T02:11:29.205Z,98.11
2022-11-27T02:16:29.251Z,97.38
2022-11-27T02:21:29.087Z,97.43
2022-11-27T02:26:29.022Z,97.00
2022-11-27T02:31:28.995Z,96.95
2022-11-27T02:36:28.895Z,97.26
2022-11-27T02:41:28.835Z,97.78
2022-11-27T02:46:28.876Z,98.19
2022-11-27T02:51:28.708Z,98.46
2022-11-27T02:56:28.645Z,98.41
2022-11-27T03:01:28.622Z,98.19
2022-11-27T03:06:28.518Z,98.51
2022-11-27T03:11:28.459Z,99.24
2022-11-27T03:16:28.441Z,99.65
2022-11-27T03:21:28.334Z,99.86
2022-11-27T03:26:28.267Z,99.86
2022-11-27T03:31:28.253Z,99.99
2022-11-27T03:36:28.140Z,99.99
2022-11-27T03:41:28.075Z,99.99
2022-11-27T03:46:28.072Z,99.99
2022-11-27T03:51:27.945Z,99.99
2022-11-27T03:56:27.895Z,99.99
2022-11-27T04:01:27.863Z,99.99
2022-11-27T04:06:27.762Z,99.56
2022-11-27T04:11:27.694Z,99.40
2022-11-27T04:16:27.720Z,99.61
2022-11-27T04:21:27.577Z,99.51
2022-11-27T04:26:27.512Z,99.71
2022-11-27T04:31:27.560Z,99.86
2022-11-27T04:36:27.387Z,99.76
2022-11-27T04:41:27.323Z,99.99
2022-11-27T04:46:27.356Z,99.97
2022-11-27T04:51:27.207Z,99.45
2022-11-27T04:56:27.133Z,99.13
2022-11-27T05:01:27.207Z,99.07
2022-11-27T05:06:27.003Z,99.07
2022-11-27T05:11:26.930Z,99.29
2022-11-27T05:16:26.983Z,99.18
2022-11-27T05:21:26.806Z,99.07
2022-11-27T05:26:26.749Z,99.33
2022-11-27T05:31:26.794Z,99.43
2022-11-27T05:36:26.626Z,99.33
2022-11-27T05:41:26.557Z,99.23
2022-11-27T05:46:26.653Z,99.23
2022-11-27T05:51:26.437Z,99.33
2022-11-27T05:56:26.370Z,99.74
2022-11-27T06:01:26.303Z,99.99
2022-11-27T06:06:26.245Z,99.99
2022-11-27T06:11:26.177Z,99.99
2022-11-27T06:16:26.237Z,99.85
2022-11-27T06:21:26.049Z,99.99
2022-11-27T06:26:26.003Z,99.99
2022-11-27T06:31:26.018Z,99.99
2022-11-27T06:36:25.876Z,99.99
2022-11-27T06:41:25.801Z,99.95
2022-11-27T06:46:25.756Z,98.91
2022-11-27T06:51:25.678Z,98.91
2022-11-27T06:56:25.617Z,98.81
2022-11-27T07:01:25.676Z,98.29
2022-11-27T07:06:25.487Z,98.18
2022-11-27T07:11:25.418Z,98.14
2022-11-27T07:16:25.447Z,99.13
2022-11-27T07:21:25.291Z,98.67
2022-11-27T07:26:25.237Z,97.58
2022-11-27T07:31:25.196Z,96.04
2022-11-27T07:36:25.123Z,94.65
2022-11-27T07:41:29.128Z,93.32
2022-11-27T07:46:24.994Z,91.32
2022-11-27T07:51:24.913Z,89.23
2022-11-27T07:56:24.868Z,85.55
2022-11-27T08:01:24.881Z,81.64
2022-11-27T08:06:24.738Z,76.37
2022-11-27T08:11:24.655Z,71.72
2022-11-27T08:16:24.654Z,68.72
2022-11-27T08:21:24.528Z,65.96
2022-11-27T08:26:24.467Z,64.37
2022-11-27T08:31:24.444Z,62.91
2022-11-27T08:36:24.335Z,62.60
2022-11-27T08:41:24.260Z,61.39
2022-11-27T08:46:24.205Z,60.55
2022-11-27T08:51:24.133Z,59.98
2022-11-27T08:56:24.084Z,57.94
2022-11-27T09:01:24.038Z,57.84
2022-11-27T09:06:23.954Z,56.03
2022-11-27T09:11:23.871Z,56.39
2022-11-27T09:16:23.882Z,55.75
2022-11-27T09:21:23.739Z,53.32
2022-11-27T09:26:23.693Z,50.89
2022-11-27T09:31:23.655Z,51.32
2022-11-27T09:36:23.552Z,52.28
2022-11-27T09:41:23.477Z,51.07
2022-11-27T09:46:23.490Z,50.23
2022-11-27T09:51:23.349Z,50.99
2022-11-27T09:56:23.289Z,51.55
2022-11-27T10:01:27.177Z,53.19
2022-11-27T10:06:23.160Z,53.77
2022-11-27T10:11:23.087Z,54.84
2022-11-27T10:16:23.113Z,51.47
2022-11-27T10:21:22.957Z,50.74
2022-11-27T10:26:22.911Z,51.37
2022-11-27T10:31:22.897Z,54.05
2022-11-27T10:36:22.779Z,54.68
2022-11-27T10:46:23.899Z,53.77
2022-11-27T10:51:22.565Z,53.16
2022-11-27T10:56:22.508Z,57.10
2022-11-27T11:01:22.516Z,56.08
2022-11-27T11:06:23.366Z,58.47
2022-11-27T11:11:22.315Z,57.68
2022-11-27T11:16:24.574Z,58.90
2022-11-27T11:21:22.184Z,56.13
2022-11-27T11:26:22.117Z,55.90
2022-11-27T11:31:22.096Z,56.35
2022-11-27T11:36:21.982Z,61.68
2022-11-27T11:41:21.912Z,65.03
2022-11-27T11:46:21.943Z,66.52
2022-11-27T11:51:26.374Z,68.66
2022-11-27T11:56:21.722Z,71.79
2022-11-27T12:01:28.857Z,72.92
2022-11-27T12:06:21.589Z,72.24
2022-11-27T12:11:21.517Z,73.43
2022-11-27T12:16:21.566Z,75.55
2022-11-27T12:21:21.396Z,76.00
2022-11-27T12:26:21.327Z,76.95
2022-11-27T12:31:21.317Z,82.84
2022-11-27T12:36:21.211Z,79.07
2022-11-27T12:41:21.133Z,76.30
2022-11-27T12:46:21.148Z,76.81
2022-11-27T12:51:21.003Z,77.98
2022-11-27T12:56:20.979Z,78.02
2022-11-27T13:01:26.282Z,78.53
2022-11-27T13:06:20.803Z,79.08
2022-11-27T13:11:20.728Z,79.08
2022-11-27T13:16:20.759Z,79.35
2022-11-27T13:21:20.602Z,79.29
2022-11-27T13:26:25.965Z,79.69
2022-11-27T13:31:20.553Z,80.10
2022-11-27T13:36:20.413Z,80.45
2022-11-27T13:41:20.340Z,80.45
2022-11-27T13:46:20.303Z,80.66
2022-11-27T13:51:20.211Z,80.66
2022-11-27T13:56:20.153Z,81.17
2022-11-27T14:01:20.192Z,80.35
2022-11-27T14:06:20.022Z,81.00
2022-11-27T14:11:19.951Z,81.42
2022-11-27T14:16:19.989Z,82.14
2022-11-27T14:21:19.830Z,82.58
2022-11-27T14:26:19.762Z,83.03
2022-11-27T14:31:19.741Z,83.44
2022-11-27T14:36:19.632Z,84.10
2022-11-27T14:41:19.571Z,84.51
2022-11-27T14:46:19.583Z,84.96
2022-11-27T14:51:19.438Z,85.07
2022-11-27T14:56:19.377Z,85.41
2022-11-27T15:01:19.297Z,85.52
2022-11-27T15:06:19.242Z,85.46
2022-11-27T15:11:49.210Z,85.35
2022-11-27T15:16:20.221Z,85.70
2022-11-27T15:21:19.034Z,85.80
2022-11-27T15:26:25.038Z,85.91
2022-11-27T15:31:18.976Z,86.05
2022-11-27T15:36:18.846Z,86.15
2022-11-27T15:41:18.780Z,86.57
2022-11-27T15:46:18.738Z,86.92
2022-11-27T15:51:18.648Z,86.71
2022-11-27T15:56:18.578Z,86.60
2022-11-27T16:01:18.626Z,86.81
2022-11-27T16:06:18.445Z,87.02
2022-11-27T16:11:18.387Z,87.17
2022-11-27T16:16:18.351Z,86.96
2022-11-27T16:21:18.252Z,86.85
2022-11-27T16:26:18.189Z,86.85
2022-11-27T16:31:18.180Z,86.65
2022-11-27T16:36:18.056Z,86.13
2022-11-27T16:41:17.971Z,85.62
2022-11-27T16:46:18.052Z,85.72
2022-11-27T16:51:17.838Z,85.82
2022-11-27T16:56:17.781Z,85.20
2022-11-27T17:01:17.829Z,84.48
2022-11-27T17:06:17.649Z,82.93
2022-11-27T17:11:17.573Z,82.51
2022-11-27T17:16:17.537Z,82.51
2022-11-27T17:21:17.439Z,82.20
2022-11-27T17:26:17.385Z,82.41
2022-11-27T17:31:17.391Z,82.93
2022-11-27T17:36:17.259Z,83.55
2022-11-27T17:41:17.177Z,83.96
2022-11-27T17:46:17.222Z,84.06
2022-11-27T17:51:17.045Z,84.17
2022-11-27T17:56:16.997Z,84.21
2022-11-27T18:01:17.042Z,84.52
2022-11-27T18:06:16.867Z,84.41
2022-11-27T18:11:16.779Z,84.41
2022-11-27T18:16:16.811Z,83.89
2022-11-27T18:21:18.579Z,84.31
2022-11-27T18:26:16.587Z,84.41
2022-11-27T18:31:16.567Z,84.21
2022-11-27T18:36:16.450Z,84.10
2022-11-27T18:41:16.379Z,84.52
2022-11-27T18:46:16.481Z,84.41
2022-11-27T18:51:16.243Z,84.52
2022-11-27T18:56:16.179Z,84.41
2022-11-27T19:01:16.273Z,84.21
2022-11-27T19:06:16.050Z,84.52
2022-11-27T19:11:15.998Z,84.00
2022-11-27T19:16:15.956Z,84.45
2022-11-27T19:21:15.856Z,84.35
2022-11-27T19:26:15.790Z,84.14
2022-11-27T19:31:15.778Z,83.83
2022-11-27T19:36:15.662Z,84.00
2022-11-27T19:41:15.594Z,84.35
2022-11-27T19:46:15.568Z,84.86
2022-11-27T19:51:15.464Z,84.55
2022-11-27T19:56:15.403Z,84.86
2022-11-27T20:01:15.483Z,83.73
2022-11-27T20:06:15.277Z,83.63
2022-11-27T20:11:15.205Z,83.73
2022-11-27T20:16:15.241Z,83.73
2022-11-27T20:21:15.072Z,84.04
2022-11-27T20:26:15.000Z,83.94
2022-11-27T20:31:14.974Z,84.25
2022-11-27T20:36:14.869Z,84.04
2022-11-27T20:41:14.817Z,84.04
2022-11-27T20:46:14.796Z,84.35
2022-11-27T20:51:14.681Z,84.80
2022-11-27T20:56:14.615Z,84.80
2022-11-27T21:01:14.576Z,85.01
2022-11-27T21:06:14.482Z,85.01
2022-11-27T21:11:14.413Z,85.11
2022-11-27T21:16:14.387Z,84.80
2022-11-27T21:21:14.280Z,85.32
2022-11-27T21:26:14.276Z,84.25
2022-11-27T21:31:14.203Z,84.80
2022-11-27T21:36:14.082Z,85.36
2022-11-27T21:41:14.073Z,86.29
2022-11-27T21:46:14.014Z,86.74
2022-11-27T21:51:13.908Z,86.95
2022-11-27T21:56:13.817Z,87.06
2022-11-27T22:01:13.861Z,87.06
2022-11-27T22:06:13.688Z,86.54
2022-11-27T22:11:13.638Z,86.23
2022-11-27T22:16:13.637Z,86.18
2022-11-27T22:21:13.493Z,86.23
2022-11-27T22:26:13.420Z,85.88
2022-11-27T22:31:13.428Z,85.67
2022-11-27T22:36:13.286Z,87.95
2022-11-27T22:41:13.230Z,85.77
2022-11-27T22:46:13.238Z,85.46
2022-11-27T22:51:13.096Z,85.67
2022-11-27T22:56:13.022Z,85.57
2022-11-27T23:01:12.975Z,85.57
2022-11-27T23:06:12.919Z,85.57
2022-11-27T23:11:12.841Z,85.57
2022-11-27T23:16:12.824Z,85.26
2022-11-27T23:21:12.709Z,84.63
2022-11-27T23:26:17.700Z,84.08
2022-11-27T23:31:29.469Z,83.56
2022-11-27T23:36:13.522Z,83.35
2022-11-27T23:41:12.438Z,83.66
2022-11-27T23:46:12.432Z,83.97
2022-11-27T23:51:12.302Z,84.22
2022-11-27T23:56:12.230Z,84.63
